Aérodrome :
LOGIN :

S'inscrire | Disclaimer

   EN    FR    IT 

 










Légende :    VFR   VFR Marginal   IFR   IFR Intensif   IFR Très Intensif
Visi : 
Plafond : 
>= 8 km
>= 3000ft
5 à 8 km
1000 à 3000 ft
1500m à 5 km
500 à 1000 ft
800 à 1500m
200 à 500 ft
< 800m
< 200 ft
Symboles :   Orages  Brouillard  Fortes neiges  Fortes précipitations  Vent > 20 kt
SIGMETs :   Divers  Orages  Givrage  Turbulence  Onde Orograph.  Cendres Volcan.







- Altitude de l'aérodrome : 287 ft
- Voir les cartes d'approche


LFRL - Lanveoc Poulmic

DERNIER METAR :
  • 221200Z AUTO 18018KT CAVOK 16/10 Q1000 BECMG 18022G35KT

METARs EXPIRÉS :
  • 221130Z AUTO 18017KT 9999 FEW032 BKN040 16/11 Q1000 BECMG 18022G35KT
  • 221100Z AUTO 19018KT 9999 FEW027 OVC036 15/11 Q1001 BECMG 19020G32KT
  • 221030Z AUTO 19014KT 9999 FEW017 OVC025 14/12 Q1002 BECMG 19020G32KT
  • 221000Z AUTO 19014KT 9999 FEW019 BKN025 OVC032 14/12 Q1002 BECMG 19020G32KT
  • 220930Z AUTO 19016KT 9999 BKN035 14/12 Q1003 BECMG 19020G32KT

TAF TAF LFRL
Valide du 22 à 12h jusqu'au 22 à 21h UTC


221100Z 2212/2221 18022G35KT 9999 SCT020 BKN030
FM221500 20025G40KT 3000 RA BKN020 OVC030
TEMPO 2217/2221 2000 SHRA BKN020 OVC030CB
PROB40
TEMPO 2217/2221 20028G50KT 0500 TSRA FG OVC020CB
Pas de NOTAMs connus pour ce terrain.
1 SIGMET publié pour la FIR Brest (LFRR) :
 
Turbulence forte
LFRR SIGMET 2 VALID 221000/221300 LFPW
LFRR BREST FIR/UIR SEV TURB FCST WI N4500 W00730 - N4500 W00800 - N4900 W00800 - N5000 W00215 - N4945 W00145 - N4815 W00430 SFC/FL080 MOV NE 20KT INTSF=



MET'MAP, la Météo Aéronautique d'un coup d'oeil ! - Copyright ORBIFLY Décembre 2007 - Disclaimer

ORBIFLY MET'MAP TEAM :

Programmation & Développement : Alexandra Zaïnal
Conception & Développement : Baudouin d'Aumeries
Co-Programmation & Développement : Marc-Olivier Méhu
Soutien technique & logistique : Manuel Goepfert

Contact : metmap@orbifly.com




SOURCES & CREDITS :

   NOAA